createdAt,value
2022-09-17T00:04:15.883Z,12.60
2022-09-17T00:09:13.930Z,12.60
2022-09-17T00:14:16.293Z,12.60
2022-09-17T00:19:17.829Z,12.50
2022-09-17T00:24:17.021Z,12.50
2022-09-17T00:29:15.532Z,12.50
2022-09-17T00:34:14.895Z,12.60
2022-09-17T00:39:15.617Z,12.70
2022-09-17T00:44:53.393Z,12.80
2022-09-17T00:50:01.604Z,12.80
2022-09-17T00:55:05.119Z,12.80
2022-09-17T01:00:03.696Z,12.70
2022-09-17T01:05:03.151Z,12.70
2022-09-17T01:10:09.270Z,12.60
2022-09-17T01:15:18.828Z,12.50
2022-09-17T01:20:42.041Z,12.50
2022-09-17T01:25:54.157Z,12.60
2022-09-17T01:31:29.706Z,12.60
2022-09-17T01:36:39.829Z,12.60
2022-09-17T01:41:44.535Z,12.70
2022-09-17T01:46:49.898Z,12.70
2022-09-17T01:51:50.718Z,12.80
2022-09-17T01:56:55.351Z,12.70
2022-09-17T02:01:57.363Z,12.80
2022-09-17T02:07:00.268Z,12.80
2022-09-17T02:12:03.710Z,12.80
2022-09-17T02:17:08.029Z,12.90
2022-09-17T02:22:15.970Z,13.10
2022-09-17T02:27:22.716Z,13.10
2022-09-17T02:32:22.032Z,13.10
2022-09-17T02:37:20.296Z,13.00
2022-09-17T02:42:25.548Z,13.10
2022-09-17T02:47:53.674Z,13.10
2022-09-17T02:53:06.754Z,13.10
2022-09-17T02:58:15.600Z,13.10
2022-09-17T03:03:20.929Z,13.10
2022-09-17T03:08:20.279Z,13.10
2022-09-17T03:13:18.459Z,13.10
2022-09-17T03:18:17.777Z,13.10
2022-09-17T03:23:16.539Z,13.10
2022-09-17T03:28:14.552Z,13.10
2022-09-17T03:33:12.646Z,13.20
2022-09-17T03:38:12.108Z,13.20
2022-09-17T03:43:12.250Z,13.20
2022-09-17T03:48:10.274Z,13.10
2022-09-17T03:53:08.459Z,13.10
2022-09-17T03:58:07.854Z,13.10
2022-09-17T04:03:06.226Z,13.10
2022-09-17T04:08:04.233Z,13.10
2022-09-17T04:13:02.344Z,13.10
2022-09-17T04:18:01.698Z,13.10
2022-09-17T04:22:59.873Z,13.10
2022-09-17T04:27:57.977Z,13.20
2022-09-17T04:32:56.037Z,13.20
2022-09-17T04:37:56.532Z,13.20
2022-09-17T04:42:54.946Z,13.20
2022-09-17T04:47:53.157Z,13.30
2022-09-17T04:52:51.111Z,13.30
2022-09-17T04:57:53.008Z,13.30
2022-09-17T05:02:52.466Z,13.30
2022-09-17T05:07:50.732Z,13.30
2022-09-17T05:12:50.772Z,13.30
2022-09-17T05:17:49.056Z,13.30
2022-09-17T05:22:48.466Z,13.30
2022-09-17T05:27:46.525Z,13.40
2022-09-17T05:32:45.821Z,13.40
2022-09-17T05:37:43.865Z,13.40
2022-09-17T05:42:41.811Z,13.50
2022-09-17T05:47:39.740Z,13.60
2022-09-17T05:52:39.013Z,13.80
2022-09-17T05:57:36.955Z,13.70
2022-09-17T06:02:34.946Z,13.60
2022-09-17T06:07:33.155Z,13.50
2022-09-17T06:12:32.496Z,13.40
2022-09-17T06:17:33.446Z,13.50
2022-09-17T06:22:31.411Z,13.50
2022-09-17T06:27:33.776Z,13.60
2022-09-17T06:32:31.865Z,13.50
2022-09-17T06:37:30.917Z,13.40
2022-09-17T06:42:29.500Z,13.40
2022-09-17T06:47:28.891Z,13.40
2022-09-17T06:52:27.197Z,13.40
2022-09-17T06:57:25.291Z,13.50
2022-09-17T07:02:23.272Z,13.50
2022-09-17T07:07:22.577Z,13.60
2022-09-17T07:12:20.550Z,13.60
2022-09-17T07:17:18.512Z,13.70
2022-09-17T07:22:16.530Z,13.80
2022-09-17T07:27:15.996Z,13.90
2022-09-17T07:32:14.008Z,13.90
2022-09-17T07:37:11.964Z,14.00
2022-09-17T07:42:09.974Z,14.20
2022-09-17T07:47:09.991Z,14.20
2022-09-17T07:52:07.919Z,14.10
2022-09-17T07:57:06.464Z,14.00
2022-09-17T08:02:04.673Z,14.10
2022-09-17T08:07:04.053Z,14.30
2022-09-17T08:12:02.128Z,14.50
2022-09-17T08:17:00.058Z,14.50
2022-09-17T08:21:58.297Z,14.40
2022-09-17T08:26:57.615Z,14.50
2022-09-17T08:31:55.532Z,14.70
2022-09-17T08:36:53.443Z,14.90
2022-09-17T08:41:57.198Z,15.20
2022-09-17T08:47:01.581Z,15.80
2022-09-17T08:52:27.512Z,16.50
2022-09-17T08:57:32.540Z,17.30
2022-09-17T09:02:46.190Z,17.30
2022-09-17T09:07:48.615Z,16.40
2022-09-17T09:12:48.160Z,15.70
2022-09-17T09:17:51.015Z,15.40
2022-09-17T09:22:51.935Z,15.50
2022-09-17T09:28:02.039Z,16.90
2022-09-17T09:33:05.289Z,17.80
2022-09-17T09:38:13.758Z,17.20
2022-09-17T09:43:18.177Z,16.70
2022-09-17T09:48:28.383Z,16.30
2022-09-17T09:53:34.599Z,15.90
2022-09-17T09:58:36.707Z,15.50
2022-09-17T10:03:41.345Z,15.30
2022-09-17T10:08:41.366Z,15.10
2022-09-17T10:13:39.641Z,16.20
2022-09-17T10:18:38.942Z,19.10
2022-09-17T10:23:39.556Z,22.40
2022-09-17T10:28:47.801Z,22.40
2022-09-17T10:33:58.747Z,23.20
2022-09-17T10:38:56.657Z,21.60
2022-09-17T10:43:54.593Z,19.10
2022-09-17T10:49:06.895Z,17.60
2022-09-17T10:54:29.322Z,16.80
2022-09-17T10:59:59.597Z,16.60
2022-09-17T11:05:08.844Z,16.10
2022-09-17T11:10:14.730Z,16.20
2022-09-17T11:15:26.910Z,16.20
2022-09-17T11:20:38.006Z,16.00
2022-09-17T11:25:56.095Z,16.40
2022-09-17T11:31:10.972Z,17.20
2022-09-17T11:36:14.867Z,17.60
2022-09-17T11:41:16.570Z,16.90
2022-09-17T11:46:19.451Z,16.50
2022-09-17T11:51:27.751Z,16.80
2022-09-17T11:56:30.969Z,17.50
2022-09-17T12:01:33.755Z,18.00
2022-09-17T12:06:41.077Z,18.00
2022-09-17T12:11:45.165Z,18.10
2022-09-17T12:16:46.008Z,17.30
2022-09-17T12:21:48.615Z,17.10
2022-09-17T12:27:09.941Z,16.70
2022-09-17T12:32:23.209Z,16.10
2022-09-17T12:37:30.322Z,16.00
2022-09-17T12:42:44.567Z,16.60
2022-09-17T12:48:30.985Z,17.20
2022-09-17T12:53:36.107Z,17.50
2022-09-17T12:58:58.596Z,17.50
2022-09-17T13:04:01.244Z,17.40
2022-09-17T13:09:28.974Z,17.20
2022-09-17T13:14:33.927Z,17.10
2022-09-17T13:19:38.011Z,17.10
2022-09-17T13:24:38.268Z,17.30
2022-09-17T13:29:59.141Z,16.90
2022-09-17T13:34:57.064Z,16.70
2022-09-17T13:39:56.511Z,16.90
2022-09-17T13:45:04.475Z,16.80
2022-09-17T13:50:05.671Z,17.00
2022-09-17T13:55:06.651Z,17.30
2022-09-17T14:00:05.338Z,17.30
2022-09-17T14:05:35.724Z,17.40
2022-09-17T14:10:42.969Z,17.50
2022-09-17T14:16:01.713Z,17.80
2022-09-17T14:21:07.550Z,18.10
2022-09-17T14:26:11.317Z,18.10
2022-09-17T14:31:17.674Z,17.80
2022-09-17T14:36:19.088Z,17.70
2022-09-17T14:41:25.159Z,17.90
2022-09-17T14:46:25.571Z,18.00
2022-09-17T14:51:26.965Z,18.30
2022-09-17T14:56:26.509Z,18.20
2022-09-17T15:01:25.814Z,18.20
2022-09-17T15:06:24.466Z,17.50
2022-09-17T15:11:22.511Z,17.30
2022-09-17T15:16:25.618Z,17.00
2022-09-17T15:21:33.086Z,16.70
2022-09-17T15:26:36.504Z,16.90
2022-09-17T15:31:36.768Z,16.90
2022-09-17T15:36:34.792Z,16.70
2022-09-17T15:41:34.609Z,16.60
2022-09-17T15:46:33.660Z,16.50
2022-09-17T15:51:35.460Z,16.60
2022-09-17T15:56:35.430Z,16.90
2022-09-17T16:01:52.841Z,17.20
2022-09-17T16:06:59.798Z,16.80
2022-09-17T16:11:58.018Z,16.20
2022-09-17T16:16:56.340Z,15.60
2022-09-17T16:21:55.629Z,14.90
2022-09-17T16:26:53.550Z,14.50
2022-09-17T16:31:52.896Z,14.20
2022-09-17T16:36:51.785Z,13.90
2022-09-17T16:41:51.286Z,13.70
2022-09-17T16:46:49.473Z,13.60
2022-09-17T16:51:47.520Z,13.60
2022-09-17T16:56:45.500Z,13.60
2022-09-17T17:01:45.041Z,13.70
2022-09-17T17:06:43.196Z,13.70
2022-09-17T17:11:41.319Z,13.60
2022-09-17T17:16:40.871Z,13.50
2022-09-17T17:21:43.986Z,13.40
2022-09-17T17:26:44.502Z,13.30
2022-09-17T17:31:42.590Z,13.30
2022-09-17T17:36:42.221Z,13.20
2022-09-17T17:41:40.154Z,13.10
2022-09-17T17:46:38.285Z,13.10
2022-09-17T17:51:36.424Z,13.10
2022-09-17T17:56:35.793Z,12.90
2022-09-17T18:01:35.121Z,12.70
2022-09-17T18:06:33.292Z,12.80
2022-09-17T18:11:31.824Z,12.70
2022-09-17T18:16:31.585Z,12.70
2022-09-17T18:21:29.923Z,12.60
2022-09-17T18:26:29.836Z,12.50
2022-09-17T18:31:29.200Z,12.60
2022-09-17T18:36:31.327Z,12.60
2022-09-17T18:41:30.154Z,12.30
2022-09-17T18:46:28.530Z,12.10
2022-09-17T18:51:29.017Z,12.10
2022-09-17T18:56:29.739Z,12.10
2022-09-17T19:01:29.268Z,12.00
2022-09-17T19:06:29.515Z,12.10
2022-09-17T19:11:27.688Z,12.10
2022-09-17T19:16:25.813Z,12.20
2022-09-17T19:21:24.018Z,12.30
2022-09-17T19:26:25.316Z,12.30
2022-09-17T19:31:23.605Z,12.30
2022-09-17T19:36:22.354Z,12.40
2022-09-17T19:41:23.073Z,12.40
2022-09-17T19:46:26.747Z,12.40
2022-09-17T19:51:26.721Z,12.40
2022-09-17T19:56:28.174Z,12.40
2022-09-17T20:01:27.629Z,12.50
2022-09-17T20:06:25.589Z,12.50
2022-09-17T20:11:25.417Z,12.50
2022-09-17T20:16:23.675Z,12.60
2022-09-17T20:21:25.831Z,12.60
2022-09-17T20:26:25.089Z,12.60
2022-09-17T20:31:24.929Z,12.50
2022-09-17T20:36:27.084Z,12.40
2022-09-17T20:41:25.198Z,12.40
2022-09-17T20:46:28.917Z,12.40
2022-09-17T20:51:30.632Z,12.40
2022-09-17T20:56:30.363Z,12.40
2022-09-17T21:01:32.682Z,12.40
2022-09-17T21:06:33.992Z,12.40
2022-09-17T21:11:32.235Z,12.40
2022-09-17T21:16:34.722Z,12.40
2022-09-17T21:21:36.396Z,12.40
2022-09-17T21:26:38.038Z,12.40
2022-09-17T21:31:37.610Z,12.40
2022-09-17T21:36:38.913Z,12.40
2022-09-17T21:41:42.120Z,12.50
2022-09-17T21:46:42.001Z,12.50
2022-09-17T21:51:42.753Z,12.60
2022-09-17T21:56:40.924Z,12.50
2022-09-17T22:01:41.068Z,12.50
2022-09-17T22:06:39.257Z,12.40
2022-09-17T22:11:39.182Z,12.40
2022-09-17T22:16:39.320Z,12.50
2022-09-17T22:21:38.830Z,12.60
2022-09-17T22:26:40.978Z,12.70
2022-09-17T22:31:39.229Z,12.80
2022-09-17T22:36:37.649Z,12.80
2022-09-17T22:41:42.810Z,12.80
2022-09-17T22:46:41.489Z,12.70
2022-09-17T22:51:41.235Z,12.70
2022-09-17T22:56:40.891Z,12.70
2022-09-17T23:01:40.723Z,12.70
2022-09-17T23:06:41.869Z,12.70
2022-09-17T23:11:41.423Z,12.70
2022-09-17T23:16:41.953Z,12.70
2022-09-17T23:21:40.705Z,12.80
2022-09-17T23:26:38.671Z,12.80
2022-09-17T23:31:37.956Z,12.90
2022-09-17T23:36:38.684Z,12.80
2022-09-17T23:41:38.342Z,12.80
2022-09-17T23:46:38.330Z,12.90
2022-09-17T23:51:37.579Z,12.90
2022-09-17T23:56:35.934Z,13.00
